Time;durP1;ratioP1;P1;durP2;ratioP2;P2;SDS_P1;SDS_P2;PMS_P1;PMS_P2;Temp;Humidity;BMP_temperature;BMP_pressure;BME280_temperature;BME280_humidity;BME280_pressure;Samples;Min_cycle;Max_cycle;Signal;HPM_P1;HPM_P2
2021/07/30 00:00:00;;;;;;;7.90;4.00;;;15.50;84.30;;;;;;4960761;28;20026;-72
2021/07/30 00:02:25;;;;;;;5.90;3.58;;;15.40;85.20;;;;;;4966173;28;20027;-72
2021/07/30 00:04:51;;;;;;;5.68;3.78;;;15.50;85.60;;;;;;4991944;28;20080;-73
2021/07/30 00:07:17;;;;;;;5.07;3.45;;;15.50;84.50;;;;;;4962050;28;20126;-72
2021/07/30 00:09:43;;;;;;;6.40;3.65;;;15.40;84.30;;;;;;4966940;28;20035;-71
2021/07/30 00:12:10;;;;;;;6.22;3.72;;;15.40;84.80;;;;;;4957370;28;20043;-72
2021/07/30 00:14:35;;;;;;;5.55;3.53;;;15.40;84.60;;;;;;4956651;28;20454;-72
2021/07/30 00:17:01;;;;;;;5.15;3.58;;;15.50;84.30;;;;;;4956605;28;20153;-72
2021/07/30 00:19:27;;;;;;;5.70;3.70;;;15.40;84.00;;;;;;4953107;28;20039;-72
2021/07/30 00:21:52;;;;;;;3.40;3.03;;;15.40;84.20;;;;;;4954319;28;20521;-72
2021/07/30 00:24:18;;;;;;;4.90;3.67;;;15.50;84.20;;;;;;4956610;28;20019;-72
2021/07/30 00:26:44;;;;;;;6.15;3.88;;;15.40;84.30;;;;;;4956772;28;20043;-72
2021/07/30 00:29:09;;;;;;;4.85;4.05;;;15.40;84.00;;;;;;4957685;28;20162;-72
2021/07/30 00:31:35;;;;;;;6.38;3.53;;;15.40;83.50;;;;;;4960957;28;20042;-72
2021/07/30 00:34:01;;;;;;;7.00;3.25;;;15.30;82.80;;;;;;4960246;28;20037;-72
2021/07/30 00:36:26;;;;;;;8.43;3.90;;;15.30;83.60;;;;;;4955974;28;20071;-72
2021/07/30 00:38:52;;;;;;;6.80;4.25;;;15.30;83.80;;;;;;4960051;28;20018;-72
2021/07/30 00:41:17;;;;;;;8.25;3.65;;;15.20;83.70;;;;;;4958003;28;20098;-72
2021/07/30 00:43:43;;;;;;;4.40;3.40;;;15.20;84.00;;;;;;4955561;28;20026;-72
2021/07/30 00:46:09;;;;;;;6.20;3.35;;;15.10;84.60;;;;;;4953377;28;20528;-72
2021/07/30 00:48:36;;;;;;;6.40;3.50;;;15.10;84.30;;;;;;4957568;28;20028;-72
2021/07/30 00:51:01;;;;;;;7.70;3.50;;;15.00;85.00;;;;;;4956477;28;20066;-72
2021/07/30 00:53:28;;;;;;;6.22;3.35;;;15.00;84.90;;;;;;4958298;28;20442;-74
2021/07/30 00:55:57;;;;;;;4.40;3.58;;;14.90;86.10;;;;;;4960862;28;20650;-74
2021/07/30 00:58:33;;;;;;;5.43;3.47;;;14.90;86.10;;;;;;4957056;28;20802;-74
2021/07/30 01:00:58;;;;;;;7.57;3.50;;;14.90;86.00;;;;;;4961263;28;20039;-74
2021/07/30 01:03:24;;;;;;;4.90;3.30;;;14.90;86.00;;;;;;4963495;28;20042;-74
2021/07/30 01:05:51;;;;;;;4.53;3.40;;;14.80;86.10;;;;;;4955786;28;20081;-74
2021/07/30 01:08:17;;;;;;;5.18;3.63;;;14.70;86.50;;;;;;4955525;28;20025;-74
2021/07/30 01:10:43;;;;;;;5.05;3.92;;;14.80;86.40;;;;;;4957794;28;20023;-74
2021/07/30 01:13:08;;;;;;;5.03;3.50;;;14.70;86.70;;;;;;4959443;28;20049;-73
2021/07/30 01:15:34;;;;;;;6.40;4.05;;;14.70;86.70;;;;;;4959904;28;20062;-75
2021/07/30 01:17:59;;;;;;;5.63;3.70;;;14.70;87.40;;;;;;4965101;28;20611;-74
2021/07/30 01:20:27;;;;;;;6.85;3.60;;;14.70;86.50;;;;;;4963388;28;20034;-74
2021/07/30 01:22:53;;;;;;;4.65;3.60;;;14.70;86.10;;;;;;4979629;28;20022;-75
2021/07/30 01:25:20;;;;;;;4.32;3.00;;;14.70;85.70;;;;;;4962196;28;20073;-76
2021/07/30 01:27:47;;;;;;;4.78;3.88;;;14.70;85.10;;;;;;4960127;28;20046;-74
2021/07/30 01:30:14;;;;;;;7.10;3.75;;;14.70;85.10;;;;;;4964946;28;20030;-74
2021/07/30 01:32:40;;;;;;;5.13;3.45;;;14.80;85.60;;;;;;4963103;28;20130;-73
2021/07/30 01:35:06;;;;;;;5.75;3.60;;;14.70;85.40;;;;;;4962283;28;20114;-74
2021/07/30 01:37:32;;;;;;;5.45;3.50;;;14.80;85.50;;;;;;4964073;28;20030;-74
2021/07/30 01:39:58;;;;;;;4.38;3.40;;;14.70;85.50;;;;;;4961657;28;20481;-74
2021/07/30 01:42:25;;;;;;;7.20;4.30;;;14.70;85.40;;;;;;4964527;28;20053;-74
2021/07/30 01:44:51;;;;;;;6.38;3.35;;;14.70;85.50;;;;;;4962122;28;20035;-74
2021/07/30 01:47:19;;;;;;;5.28;3.65;;;14.70;85.50;;;;;;4965990;28;20090;-74
2021/07/30 01:49:46;;;;;;;5.57;3.80;;;14.70;85.40;;;;;;4962590;28;20046;-74
2021/07/30 01:52:12;;;;;;;9.32;4.53;;;14.70;85.70;;;;;;4966662;28;20018;-74
2021/07/30 01:54:38;;;;;;;4.93;3.88;;;14.60;86.10;;;;;;4961475;28;20027;-74
2021/07/30 01:57:04;;;;;;;4.43;3.22;;;14.50;86.60;;;;;;4966163;28;20046;-74
2021/07/30 01:59:30;;;;;;;4.88;3.72;;;14.50;86.50;;;;;;4962599;28;20022;-74
2021/07/30 02:01:55;;;;;;;4.60;3.38;;;14.30;87.00;;;;;;4961745;28;20114;-74
2021/07/30 02:04:21;;;;;;;5.03;3.10;;;14.40;87.00;;;;;;4965249;28;20019;-74
2021/07/30 02:06:47;;;;;;;6.05;3.92;;;14.20;87.60;;;;;;4963080;28;20117;-75
2021/07/30 02:09:13;;;;;;;6.03;4.05;;;14.30;87.30;;;;;;4962719;28;20137;-74
2021/07/30 02:11:43;;;;;;;6.22;3.90;;;14.20;87.40;;;;;;4965240;28;20039;-74
2021/07/30 02:14:15;;;;;;;8.63;3.88;;;14.30;87.20;;;;;;4962513;28;20053;-74
2021/07/30 02:16:50;;;;;;;5.13;3.55;;;14.40;87.30;;;;;;4959260;28;20027;-74
2021/07/30 02:19:18;;;;;;;5.65;3.40;;;14.40;87.70;;;;;;4968662;28;20039;-73
2021/07/30 02:21:45;;;;;;;4.90;3.63;;;14.30;86.90;;;;;;4963983;28;20024;-74
2021/07/30 02:24:11;;;;;;;6.10;3.53;;;14.30;87.40;;;;;;4962112;28;20286;-74
2021/07/30 02:26:37;;;;;;;5.80;3.47;;;14.30;87.90;;;;;;4964159;28;20517;-74
2021/07/30 02:29:04;;;;;;;6.35;4.32;;;14.20;88.30;;;;;;4966180;28;20050;-74
2021/07/30 02:31:29;;;;;;;5.63;3.90;;;14.10;89.20;;;;;;4961969;28;20046;-74
2021/07/30 02:33:55;;;;;;;7.38;3.95;;;14.10;89.50;;;;;;4962433;28;20035;-74
2021/07/30 02:36:21;;;;;;;5.78;4.00;;;14.10;89.20;;;;;;4968274;28;20038;-73
2021/07/30 02:38:47;;;;;;;5.97;3.92;;;14.10;88.80;;;;;;4961305;28;20256;-73
2021/07/30 02:41:16;;;;;;;4.25;3.00;;;14.20;88.20;;;;;;4963665;28;20516;-73
2021/07/30 02:43:43;;;;;;;4.45;2.92;;;14.20;87.70;;;;;;4990100;28;20097;-74
2021/07/30 02:46:09;;;;;;;4.07;3.50;;;14.10;86.40;;;;;;4963531;28;20049;-74
2021/07/30 02:48:35;;;;;;;5.72;3.53;;;14.00;87.10;;;;;;4963854;28;20050;-74
2021/07/30 02:51:02;;;;;;;6.35;3.28;;;14.10;87.90;;;;;;4962941;28;20062;-74
2021/07/30 02:53:27;;;;;;;6.38;3.92;;;14.10;87.80;;;;;;4964755;28;20129;-74
2021/07/30 02:55:53;;;;;;;6.22;3.60;;;14.10;88.40;;;;;;4963536;28;20593;-74
2021/07/30 02:58:19;;;;;;;4.43;3.50;;;14.20;88.70;;;;;;4964635;28;20114;-74
2021/07/30 03:00:44;;;;;;;5.80;3.85;;;14.20;88.30;;;;;;4961924;28;20041;-74
2021/07/30 03:03:10;;;;;;;6.63;3.78;;;14.20;88.70;;;;;;4961218;28;20521;-74
2021/07/30 03:05:36;;;;;;;5.22;3.80;;;14.10;89.60;;;;;;4963531;28;20406;-74
2021/07/30 03:08:02;;;;;;;5.60;3.63;;;14.10;89.70;;;;;;4965826;28;20027;-74
2021/07/30 03:10:28;;;;;;;6.10;4.07;;;14.20;89.30;;;;;;4980301;28;20022;-73
2021/07/30 03:12:53;;;;;;;4.55;3.67;;;14.20;89.30;;;;;;4963903;28;20050;-74
2021/07/30 03:15:19;;;;;;;6.25;3.95;;;14.20;89.00;;;;;;4966321;28;20053;-74
2021/07/30 03:17:45;;;;;;;6.47;3.72;;;14.20;88.70;;;;;;4964545;28;20035;-74
2021/07/30 03:20:12;;;;;;;6.20;3.78;;;14.20;88.30;;;;;;4967794;28;20059;-74
2021/07/30 03:22:38;;;;;;;5.30;3.88;;;14.20;88.20;;;;;;4966257;28;20098;-74
2021/07/30 03:25:05;;;;;;;5.80;4.40;;;14.20;88.00;;;;;;4965922;28;20110;-74
2021/07/30 03:27:31;;;;;;;7.22;3.60;;;14.20;87.70;;;;;;4968089;28;20133;-74
2021/07/30 03:29:58;;;;;;;4.82;3.50;;;14.10;87.40;;;;;;4964741;28;20540;-74
2021/07/30 03:32:23;;;;;;;4.82;3.25;;;14.10;87.70;;;;;;4961279;28;20039;-74
2021/07/30 03:34:49;;;;;;;6.40;4.15;;;14.10;87.80;;;;;;4965774;28;20038;-73
2021/07/30 03:37:15;;;;;;;6.50;4.25;;;14.10;88.20;;;;;;4967534;28;20573;-74
2021/07/30 03:39:41;;;;;;;5.97;4.05;;;14.10;87.80;;;;;;4967133;28;20022;-74
2021/07/30 03:42:08;;;;;;;6.85;3.78;;;14.10;87.00;;;;;;4968186;28;20094;-75
2021/07/30 03:44:35;;;;;;;4.88;3.42;;;14.10;87.40;;;;;;4967903;28;20046;-75
2021/07/30 03:47:00;;;;;;;5.80;3.78;;;14.10;87.60;;;;;;4970933;28;20033;-74
2021/07/30 03:49:29;;;;;;;5.10;3.95;;;14.00;87.70;;;;;;4967945;28;20117;-75
2021/07/30 03:51:54;;;;;;;;;;;14.00;88.60;;;;;;4966883;28;20023;-74
2021/07/30 03:54:20;;;;;;;10.88;4.28;;;13.90;89.40;;;;;;4963381;28;19917;-74
2021/07/30 03:56:46;;;;;;;5.88;3.65;;;13.80;90.20;;;;;;4990364;28;20045;-74
2021/07/30 03:59:12;;;;;;;6.75;3.85;;;13.90;89.60;;;;;;4966896;28;20023;-73
2021/07/30 04:01:47;;;;;;;6.55;4.10;;;13.80;89.80;;;;;;4962141;28;20031;-74
2021/07/30 04:04:16;;;;;;;4.82;3.60;;;13.80;90.00;;;;;;4959332;28;20572;-74
2021/07/30 04:06:44;;;;;;;7.68;4.18;;;13.90;89.50;;;;;;4963815;28;20038;-74
2021/07/30 04:09:14;;;;;;;5.63;4.03;;;14.00;89.50;;;;;;4967862;28;20027;-73
2021/07/30 04:11:41;;;;;;;5.43;3.90;;;14.00;89.00;;;;;;4966268;28;20038;-73
2021/07/30 04:14:07;;;;;;;5.55;3.50;;;14.00;89.10;;;;;;4965726;28;20031;-74
2021/07/30 04:16:34;;;;;;;7.82;4.53;;;13.90;89.10;;;;;;4993074;28;20679;-73
2021/07/30 04:19:01;;;;;;;6.78;4.45;;;13.90;90.00;;;;;;4963669;28;20573;-73
2021/07/30 04:21:28;;;;;;;5.05;3.80;;;14.00;90.00;;;;;;4996325;28;20136;-74
2021/07/30 04:23:53;;;;;;;7.93;4.20;;;14.10;90.10;;;;;;4964939;28;20054;-74
2021/07/30 04:26:19;;;;;;;6.25;4.00;;;14.20;90.00;;;;;;4968483;28;20069;-74
2021/07/30 04:28:45;;;;;;;5.15;3.95;;;14.00;90.20;;;;;;4996084;28;20034;-74
2021/07/30 04:31:10;;;;;;;8.52;4.20;;;14.00;90.40;;;;;;4961067;28;20043;-75
2021/07/30 04:33:36;;;;;;;5.47;4.10;;;14.10;90.20;;;;;;4963253;28;20031;-75
2021/07/30 04:36:02;;;;;;;5.95;3.95;;;14.20;90.00;;;;;;4959523;28;20041;-75
2021/07/30 04:38:27;;;;;;;6.13;4.03;;;14.20;89.60;;;;;;4965635;28;20023;-75
2021/07/30 04:40:53;;;;;;;6.45;3.92;;;14.40;89.50;;;;;;4962133;28;20023;-74
2021/07/30 04:43:19;;;;;;;5.72;4.22;;;14.40;89.00;;;;;;4961555;28;20049;-75
2021/07/30 04:45:44;;;;;;;9.45;4.25;;;14.50;88.80;;;;;;4962101;28;20062;-74
2021/07/30 04:48:10;;;;;;;4.07;3.28;;;14.50;89.50;;;;;;4965733;28;20027;-75
2021/07/30 04:50:35;;;;;;;7.60;4.22;;;14.50;89.50;;;;;;4965957;28;20135;-75
2021/07/30 04:53:01;;;;;;;5.82;3.42;;;14.50;89.70;;;;;;4963511;28;20035;-74
2021/07/30 04:55:27;;;;;;;4.78;3.83;;;14.50;89.50;;;;;;4967026;28;20041;-74
2021/07/30 04:57:56;;;;;;;6.90;4.07;;;14.50;89.20;;;;;;4962740;28;20114;-75
2021/07/30 05:00:22;;;;;;;6.95;3.67;;;14.60;89.00;;;;;;4963438;28;20023;-74
2021/07/30 05:02:52;;;;;;;4.70;3.50;;;14.60;89.70;;;;;;4970455;28;20379;-74
2021/07/30 05:05:18;;;;;;;5.40;3.33;;;14.70;89.10;;;;;;4968210;28;20495;-74
2021/07/30 05:07:44;;;;;;;4.40;3.33;;;14.70;90.00;;;;;;4967374;28;20089;-74
2021/07/30 05:10:11;;;;;;;7.70;3.97;;;14.80;89.30;;;;;;4966884;28;20026;-74
2021/07/30 05:12:37;;;;;;;5.85;4.18;;;14.80;88.90;;;;;;4964358;28;20041;-76
2021/07/30 05:15:05;;;;;;;5.18;4.07;;;14.90;88.90;;;;;;4964782;28;20474;-75
2021/07/30 05:17:31;;;;;;;6.93;4.22;;;15.00;88.80;;;;;;4965581;28;20037;-75
2021/07/30 05:19:57;;;;;;;7.05;4.20;;;15.00;88.80;;;;;;4964366;28;20046;-75
2021/07/30 05:22:23;;;;;;;5.47;4.18;;;15.10;88.70;;;;;;4967306;28;20026;-74
2021/07/30 05:24:49;;;;;;;7.65;4.82;;;15.20;88.60;;;;;;4967703;28;20127;-75
2021/07/30 05:27:15;;;;;;;7.30;4.60;;;15.20;87.90;;;;;;4977123;28;20033;-74
2021/07/30 05:29:41;;;;;;;6.90;4.28;;;15.30;88.50;;;;;;4995344;28;20113;-74
2021/07/30 05:32:08;;;;;;;7.63;4.45;;;15.40;88.00;;;;;;4964927;28;20035;-75
2021/07/30 05:34:34;;;;;;;8.23;4.80;;;15.40;88.20;;;;;;4968595;28;20595;-75
2021/07/30 05:37:00;;;;;;;6.45;4.50;;;15.50;88.00;;;;;;4966279;28;20109;-75
2021/07/30 05:39:25;;;;;;;6.80;4.50;;;15.60;87.90;;;;;;4965985;28;20462;-75
2021/07/30 05:41:51;;;;;;;7.28;4.70;;;15.60;88.10;;;;;;4964494;28;20015;-75
2021/07/30 05:44:17;;;;;;;9.32;4.53;;;15.70;88.60;;;;;;4962124;28;20034;-74
2021/07/30 05:46:44;;;;;;;6.78;4.90;;;15.80;88.60;;;;;;4962151;28;20043;-74
2021/07/30 05:49:09;;;;;;;7.43;4.88;;;15.80;88.80;;;;;;4957717;28;20038;-76
2021/07/30 05:51:37;;;;;;;5.93;4.38;;;15.90;88.80;;;;;;4959272;28;20026;-75
2021/07/30 05:54:03;;;;;;;8.37;5.03;;;16.00;88.30;;;;;;4958697;28;20054;-75
2021/07/30 05:56:28;;;;;;;7.47;4.82;;;16.00;88.40;;;;;;4956640;28;20286;-74
2021/07/30 05:58:54;;;;;;;7.05;4.72;;;16.10;87.60;;;;;;4959714;28;20039;-74
2021/07/30 06:01:20;;;;;;;8.65;5.10;;;16.20;87.90;;;;;;4961820;28;20039;-75
2021/07/30 06:03:46;;;;;;;10.88;4.55;;;16.20;87.70;;;;;;4958232;28;20061;-75
2021/07/30 06:06:11;;;;;;;7.47;4.93;;;16.30;87.30;;;;;;4958421;28;20038;-74
2021/07/30 06:08:37;;;;;;;7.60;4.75;;;16.30;86.80;;;;;;4967542;28;20054;-74
2021/07/30 06:11:04;;;;;;;9.05;5.32;;;16.40;87.40;;;;;;4969085;28;20520;-74
2021/07/30 06:13:30;;;;;;;8.20;4.53;;;16.50;87.70;;;;;;4953535;28;20019;-74
2021/07/30 06:15:56;;;;;;;9.52;5.13;;;16.50;86.80;;;;;;4956500;28;20553;-75
2021/07/30 06:18:21;;;;;;;8.55;5.15;;;16.60;87.30;;;;;;4958897;28;20023;-74
2021/07/30 06:20:47;;;;;;;6.78;4.57;;;16.70;87.10;;;;;;4962547;28;20054;-75
2021/07/30 06:23:12;;;;;;;8.98;4.93;;;16.80;86.60;;;;;;4955997;28;20437;-74
2021/07/30 06:25:38;;;;;;;7.82;5.20;;;16.80;86.40;;;;;;4955108;28;20082;-75
2021/07/30 06:28:04;;;;;;;7.95;5.10;;;16.80;86.30;;;;;;4969281;28;20202;-74
2021/07/30 06:30:29;;;;;;;7.47;4.88;;;16.90;86.40;;;;;;4965090;28;20540;-74
2021/07/30 06:32:55;;;;;;;7.82;4.80;;;16.90;86.30;;;;;;4962454;28;20034;-74
2021/07/30 06:35:21;;;;;;;8.68;5.00;;;17.00;87.50;;;;;;4965323;28;20026;-75
2021/07/30 06:37:47;;;;;;;7.55;5.40;;;17.10;86.70;;;;;;4962130;28;20035;-74
2021/07/30 06:40:13;;;;;;;16.35;5.80;;;17.20;86.10;;;;;;4963137;28;20504;-74
2021/07/30 06:42:39;;;;;;;8.48;5.53;;;17.30;85.90;;;;;;4962603;28;20042;-75
2021/07/30 06:45:06;;;;;;;6.25;4.75;;;17.40;85.80;;;;;;4965924;28;20045;-75
2021/07/30 06:47:36;;;;;;;9.23;5.50;;;17.50;86.40;;;;;;4965528;28;20046;-75
2021/07/30 06:50:03;;;;;;;9.90;5.32;;;17.60;85.80;;;;;;4967472;28;20019;-75
2021/07/30 06:52:30;;;;;;;6.55;4.88;;;17.70;85.40;;;;;;4962381;28;20727;-75
2021/07/30 06:54:56;;;;;;;7.40;6.03;;;17.90;86.00;;;;;;4964361;28;20125;-74
2021/07/30 06:57:22;;;;;;;6.03;4.70;;;17.90;83.90;;;;;;4969450;28;20122;-75
2021/07/30 06:59:48;;;;;;;5.93;3.83;;;18.10;83.90;;;;;;4970052;28;20030;-74
2021/07/30 07:02:17;;;;;;;5.65;3.63;;;18.20;82.70;;;;;;4966526;28;20043;-75
2021/07/30 07:04:43;;;;;;;7.70;3.90;;;18.40;79.00;;;;;;4967179;28;20031;-74
2021/07/30 07:07:09;;;;;;;4.53;3.20;;;18.50;79.60;;;;;;4978262;28;20045;-75
2021/07/30 07:09:34;;;;;;;4.13;3.17;;;18.60;78.30;;;;;;4966049;28;20053;-75
2021/07/30 07:12:02;;;;;;;5.50;3.30;;;18.70;77.10;;;;;;4963209;28;20035;-74
2021/07/30 07:14:28;;;;;;;;;;;18.80;77.00;;;;;;4968930;28;20031;-74
2021/07/30 07:16:54;;;;;;;4.88;3.25;;;18.90;76.30;;;;;;4969186;28;19921;-75
2021/07/30 07:19:19;;;;;;;5.28;3.72;;;19.00;76.60;;;;;;4969357;28;20027;-74
2021/07/30 07:21:45;;;;;;;6.80;3.90;;;19.10;75.30;;;;;;4968235;28;20057;-75
2021/07/30 07:24:11;;;;;;;4.47;3.42;;;19.10;75.80;;;;;;4966056;28;20038;-75
2021/07/30 07:26:38;;;;;;;4.88;3.72;;;19.20;75.10;;;;;;4969319;28;20088;-75
2021/07/30 07:29:05;;;;;;;6.38;4.13;;;19.40;75.70;;;;;;4967291;28;20026;-75
2021/07/30 07:31:31;;;;;;;7.50;4.10;;;19.50;75.50;;;;;;4963302;28;20038;-75
2021/07/30 07:33:57;;;;;;;6.60;4.38;;;19.50;75.00;;;;;;4967268;28;20045;-75
2021/07/30 07:36:23;;;;;;;6.82;4.15;;;19.60;75.00;;;;;;4962552;28;20131;-76
2021/07/30 07:38:49;;;;;;;6.63;4.03;;;19.70;74.60;;;;;;4960096;28;21631;-75
2021/07/30 07:41:14;;;;;;;7.07;3.85;;;19.80;75.00;;;;;;4965087;28;20684;-76
2021/07/30 07:43:40;;;;;;;7.88;4.28;;;19.90;74.80;;;;;;4962663;28;20026;-76
2021/07/30 07:46:06;;;;;;;6.72;4.15;;;20.00;73.90;;;;;;4967886;28;20524;-76
2021/07/30 07:48:31;;;;;;;4.65;3.95;;;20.10;74.20;;;;;;4964241;28;20042;-75
2021/07/30 07:50:57;;;;;;;6.90;4.03;;;20.20;74.70;;;;;;4963264;28;20436;-75
2021/07/30 07:53:23;;;;;;;4.95;3.90;;;20.30;74.50;;;;;;4963358;28;20441;-75
2021/07/30 07:55:58;;;;;;;5.85;3.83;;;20.50;74.60;;;;;;4964838;28;20515;-76
2021/07/30 07:58:23;;;;;;;8.00;4.43;;;20.60;74.00;;;;;;4964193;28;20119;-75
2021/07/30 08:00:49;;;;;;;12.07;4.70;;;20.70;73.10;;;;;;4964854;28;20122;-75
2021/07/30 08:03:15;;;;;;;5.25;3.80;;;20.80;72.50;;;;;;4963333;28;20084;-76
2021/07/30 08:05:40;;;;;;;6.68;4.50;;;20.80;71.80;;;;;;4965833;28;20030;-75
2021/07/30 08:08:06;;;;;;;6.45;4.18;;;21.00;71.80;;;;;;4964363;28;20098;-76
2021/07/30 08:10:33;;;;;;;6.75;4.25;;;21.10;72.10;;;;;;4963727;28;20030;-75
2021/07/30 08:12:58;;;;;;;6.90;4.28;;;21.30;72.70;;;;;;4963581;28;20106;-75
2021/07/30 08:15:24;;;;;;;5.28;4.35;;;21.40;71.10;;;;;;4965316;28;20153;-75
2021/07/30 08:17:50;;;;;;;7.68;4.70;;;21.50;71.00;;;;;;4964823;28;20031;-75
2021/07/30 08:20:16;;;;;;;4.80;3.78;;;21.60;71.60;;;;;;4965916;28;20506;-76
2021/07/30 08:22:45;;;;;;;8.73;4.63;;;21.60;70.70;;;;;;4966041;28;20105;-74
2021/07/30 08:25:13;;;;;;;5.35;4.15;;;21.70;70.50;;;;;;4967549;28;20042;-74
2021/07/30 08:27:39;;;;;;;5.47;4.33;;;21.80;70.50;;;;;;4966543;28;20108;-75
2021/07/30 08:30:05;;;;;;;7.82;4.60;;;22.00;70.30;;;;;;4970269;28;20031;-75
2021/07/30 08:32:32;;;;;;;5.57;4.20;;;22.10;69.70;;;;;;4961655;28;20126;-75
2021/07/30 08:34:57;;;;;;;5.18;4.10;;;22.20;66.60;;;;;;4966833;28;20426;-74
2021/07/30 08:37:23;;;;;;;6.03;3.92;;;22.30;68.80;;;;;;4969208;28;20717;-75
2021/07/30 08:39:49;;;;;;;5.55;3.97;;;22.50;68.40;;;;;;4966665;28;20502;-75
2021/07/30 08:42:15;;;;;;;7.10;4.20;;;22.60;67.60;;;;;;4955534;28;20035;-75
2021/07/30 08:44:42;;;;;;;6.15;3.63;;;22.60;65.10;;;;;;4966428;28;20026;-75
2021/07/30 08:47:10;;;;;;;7.07;4.45;;;22.70;65.70;;;;;;4963887;28;20050;-75
2021/07/30 08:49:37;;;;;;;5.07;3.95;;;22.70;66.00;;;;;;4962188;28;20777;-75
2021/07/30 08:52:10;;;;;;;6.85;4.45;;;22.90;64.60;;;;;;4958152;28;20053;-75
2021/07/30 08:54:36;;;;;;;4.28;3.58;;;22.90;64.00;;;;;;4977332;28;20043;-75
2021/07/30 08:57:12;;;;;;;6.45;4.25;;;23.00;63.40;;;;;;4959700;28;20054;-75
2021/07/30 08:59:39;;;;;;;6.97;4.45;;;23.10;64.10;;;;;;4959652;28;20031;-75
2021/07/30 09:02:06;;;;;;;4.68;4.03;;;23.20;64.00;;;;;;4961198;28;20525;-75
2021/07/30 09:04:32;;;;;;;5.28;3.88;;;23.30;64.10;;;;;;4960485;28;20049;-75
2021/07/30 09:07:02;;;;;;;5.78;4.10;;;23.30;64.10;;;;;;4974934;28;20035;-75
2021/07/30 09:09:29;;;;;;;6.25;3.80;;;23.50;62.30;;;;;;4962300;28;20596;-75
2021/07/30 09:11:57;;;;;;;4.68;3.58;;;23.50;62.20;;;;;;4956950;28;20061;-72
2021/07/30 09:14:34;;;;;;;;;;;23.60;59.90;;;;;;4960018;28;20058;-72
2021/07/30 09:17:00;;;;;;;5.28;4.07;;;23.60;61.60;;;;;;4960632;28;20030;-73
2021/07/30 09:19:26;;;;;;;5.38;4.25;;;23.70;63.40;;;;;;4963842;28;20141;-72
2021/07/30 09:22:01;;;;;;;4.93;3.95;;;23.80;63.20;;;;;;4959360;28;20434;-73
2021/07/30 09:24:34;;;;;;;4.93;4.10;;;23.80;59.30;;;;;;4959117;28;20035;-74
2021/07/30 09:27:00;;;;;;;6.45;4.15;;;23.90;60.80;;;;;;4961950;28;20035;-75
2021/07/30 09:29:29;;;;;;;5.07;4.20;;;23.90;61.40;;;;;;4960453;28;20082;-76
2021/07/30 09:31:59;;;;;;;5.63;4.32;;;24.00;62.30;;;;;;4956563;28;20113;-75
2021/07/30 09:34:24;;;;;;;5.68;4.13;;;24.10;60.80;;;;;;4960509;28;20102;-75
2021/07/30 09:37:11;;;;;;;4.88;3.97;;;24.30;61.70;;;;;;4957773;28;20022;-75
2021/07/30 09:39:45;;;;;;;4.80;3.65;;;24.30;59.00;;;;;;4962779;28;20031;-75
2021/07/30 09:42:15;;;;;;;4.75;3.70;;;24.40;61.20;;;;;;4956604;28;20034;-75
2021/07/30 09:44:47;;;;;;;5.18;4.07;;;24.40;56.70;;;;;;4959767;28;20166;-75
2021/07/30 09:47:19;;;;;;;5.53;3.90;;;24.40;57.40;;;;;;4958812;28;20030;-75
2021/07/30 09:49:54;;;;;;;6.80;3.95;;;24.50;57.40;;;;;;4955233;28;20840;-73
2021/07/30 09:52:24;;;;;;;4.43;3.95;;;24.50;59.00;;;;;;4959204;28;20445;-75
2021/07/30 09:54:58;;;;;;;5.45;3.90;;;24.70;57.40;;;;;;4961676;28;20401;-75
2021/07/30 09:57:26;;;;;;;5.40;4.10;;;24.70;57.60;;;;;;4964926;28;20023;-75
2021/07/30 09:59:58;;;;;;;6.07;3.72;;;24.90;57.80;;;;;;4954461;28;20085;-75
2021/07/30 10:02:29;;;;;;;6.45;4.10;;;24.90;57.70;;;;;;4945716;28;21208;-75
2021/07/30 10:04:55;;;;;;;4.78;3.95;;;25.00;55.60;;;;;;4948277;28;20033;-75
2021/07/30 10:07:22;;;;;;;5.72;3.65;;;24.90;56.60;;;;;;4947417;28;20764;-76
2021/07/30 10:09:57;;;;;;;4.40;3.78;;;24.90;55.90;;;;;;4948549;28;20035;-75
2021/07/30 10:12:24;;;;;;;5.55;3.90;;;24.80;55.60;;;;;;4954831;28;20073;-76
2021/07/30 10:14:50;;;;;;;5.40;3.92;;;24.70;56.10;;;;;;4948026;28;20034;-75
2021/07/30 10:17:21;;;;;;;6.07;4.20;;;24.70;57.30;;;;;;4963775;28;20078;-75
2021/07/30 10:19:48;;;;;;;6.35;4.32;;;24.80;55.90;;;;;;4948333;28;20022;-75
2021/07/30 10:22:15;;;;;;;5.97;4.28;;;24.80;57.10;;;;;;4951559;28;20027;-75
2021/07/30 10:24:53;;;;;;;5.97;4.30;;;24.90;56.60;;;;;;4952261;28;20026;-75
2021/07/30 10:27:24;;;;;;;6.22;4.40;;;25.00;56.90;;;;;;4954895;28;20035;-75
2021/07/30 10:30:12;;;;;;;5.60;4.05;;;25.10;57.30;;;;;;4947806;28;20192;-75
2021/07/30 10:32:50;;;;;;;5.35;4.38;;;25.20;56.80;;;;;;4948037;28;20163;-75
2021/07/30 10:35:18;;;;;;;5.00;4.25;;;25.30;56.20;;;;;;4948481;28;20031;-75
2021/07/30 10:37:47;;;;;;;4.93;4.07;;;25.30;56.00;;;;;;4948352;28;20629;-76
2021/07/30 10:40:24;;;;;;;5.35;3.90;;;25.40;57.40;;;;;;4950578;28;20031;-75
2021/07/30 10:43:07;;;;;;;5.85;4.32;;;25.40;54.60;;;;;;4947255;28;20034;-75
2021/07/30 10:45:37;;;;;;;6.00;4.03;;;25.40;55.50;;;;;;4947869;28;20033;-75
2021/07/30 10:48:11;;;;;;;6.47;4.15;;;25.40;55.70;;;;;;4945799;28;20031;-75
2021/07/30 10:50:41;;;;;;;5.90;4.18;;;25.50;56.60;;;;;;4950101;28;20054;-75
2021/07/30 10:53:38;;;;;;;4.95;4.10;;;25.60;55.80;;;;;;4946196;28;20126;-75
2021/07/30 10:56:17;;;;;;;7.45;4.45;;;25.70;57.30;;;;;;4945758;28;20034;-75
2021/07/30 10:58:45;;;;;;;7.63;4.20;;;25.80;56.70;;;;;;4947485;28;20105;-75
2021/07/30 11:01:13;;;;;;;6.78;4.63;;;25.80;56.20;;;;;;4954570;28;20023;-75
2021/07/30 11:03:58;;;;;;;6.38;4.18;;;25.90;56.10;;;;;;4947555;28;20027;-75
2021/07/30 11:06:50;;;;;;;6.03;4.47;;;25.90;55.30;;;;;;4951299;28;20030;-75
2021/07/30 11:09:17;;;;;;;7.10;4.38;;;25.90;56.80;;;;;;4948997;28;20050;-75
2021/07/30 11:11:56;;;;;;;6.95;4.78;;;25.90;53.40;;;;;;4949931;28;20038;-73
2021/07/30 11:14:26;;;;;;;6.10;4.22;;;25.90;57.20;;;;;;4981578;28;20066;-75
2021/07/30 11:16:58;;;;;;;5.40;4.30;;;25.90;54.70;;;;;;4954946;28;20037;-73
2021/07/30 11:19:26;;;;;;;5.82;4.50;;;25.90;55.90;;;;;;4965131;28;20031;-73
2021/07/30 11:21:54;;;;;;;6.65;4.30;;;26.00;55.60;;;;;;4954680;28;20034;-76
2021/07/30 11:24:20;;;;;;;7.32;4.60;;;26.10;55.00;;;;;;4956776;28;20027;-75
2021/07/30 11:26:46;;;;;;;5.07;4.20;;;26.10;55.50;;;;;;4953517;28;20097;-75
2021/07/30 11:29:14;;;;;;;4.72;4.00;;;26.00;54.50;;;;;;4964177;28;20027;-75
2021/07/30 11:31:57;;;;;;;10.38;5.07;;;26.10;55.80;;;;;;4957241;28;20043;-75
2021/07/30 11:34:27;;;;;;;4.68;4.10;;;26.20;55.80;;;;;;4954347;28;20035;-75
2021/07/30 11:36:53;;;;;;;6.35;4.38;;;26.20;55.10;;;;;;4957571;28;20030;-75
2021/07/30 11:39:18;;;;;;;6.68;4.55;;;26.20;53.70;;;;;;4960597;28;21267;-75
2021/07/30 11:41:49;;;;;;;4.38;3.97;;;26.20;55.90;;;;;;4964024;28;20032;-75
2021/07/30 11:44:15;;;;;;;5.75;4.60;;;26.20;54.30;;;;;;4974268;28;20098;-75
2021/07/30 11:46:50;;;;;;;6.55;4.68;;;26.20;53.60;;;;;;4974960;28;20039;-75
2021/07/30 11:49:16;;;;;;;6.47;4.32;;;26.10;54.80;;;;;;4964903;28;20027;-75
2021/07/30 11:51:43;;;;;;;8.02;4.72;;;26.20;56.00;;;;;;4961622;28;20101;-74
2021/07/30 11:54:09;;;;;;;5.28;4.20;;;26.20;57.30;;;;;;4959742;28;20038;-74
2021/07/30 11:56:44;;;;;;;6.07;4.38;;;26.30;57.10;;;;;;4961371;28;20074;-74
2021/07/30 11:59:09;;;;;;;5.72;4.38;;;26.30;54.50;;;;;;4995639;28;20105;-74
2021/07/30 12:01:35;;;;;;;5.85;3.88;;;26.30;54.40;;;;;;4958314;28;20099;-75
2021/07/30 12:04:17;;;;;;;6.90;4.80;;;26.20;52.50;;;;;;4961329;28;20556;-76
2021/07/30 12:06:56;;;;;;;5.30;4.20;;;26.30;55.20;;;;;;4956403;28;20118;-75
2021/07/30 12:09:24;;;;;;;6.30;4.40;;;26.30;57.10;;;;;;4960496;28;20093;-74
2021/07/30 12:11:55;;;;;;;4.68;4.18;;;26.30;54.50;;;;;;4959725;28;20585;-74
2021/07/30 12:14:24;;;;;;;4.90;4.38;;;26.20;53.40;;;;;;4961853;28;20569;-74
2021/07/30 12:16:51;;;;;;;5.85;4.25;;;26.20;52.90;;;;;;4949743;28;20042;-74
2021/07/30 12:19:30;;;;;;;4.90;4.32;;;26.10;54.90;;;;;;4951306;28;20030;-74
2021/07/30 12:22:07;;;;;;;5.70;4.45;;;26.10;55.20;;;;;;4951031;28;20030;-74
2021/07/30 12:24:45;;;;;;;5.97;4.30;;;26.20;55.40;;;;;;4949903;28;20030;-74
2021/07/30 12:27:19;;;;;;;7.05;4.53;;;26.10;52.10;;;;;;4954706;28;20797;-75
2021/07/30 12:29:46;;;;;;;5.75;4.50;;;26.10;53.50;;;;;;4950843;28;20093;-75
2021/07/30 12:32:19;;;;;;;5.13;4.60;;;26.20;55.40;;;;;;4947445;28;20042;-75
2021/07/30 12:35:14;;;;;;;5.20;4.13;;;26.20;54.90;;;;;;4952675;28;20086;-75
2021/07/30 12:38:04;;;;;;;5.28;4.10;;;26.20;55.10;;;;;;4962850;28;20441;-74
2021/07/30 12:40:30;;;;;;;7.13;4.53;;;26.30;56.00;;;;;;4956045;28;20023;-75
2021/07/30 12:43:18;;;;;;;5.15;3.95;;;26.30;54.30;;;;;;4956595;28;20023;-72
2021/07/30 12:45:51;;;;;;;7.50;4.70;;;26.30;52.90;;;;;;4955631;28;20107;-72
2021/07/30 12:48:21;;;;;;;6.18;4.38;;;26.30;53.80;;;;;;4953487;28;20623;-72
2021/07/30 12:50:49;;;;;;;5.10;4.20;;;26.20;54.70;;;;;;4985115;28;20031;-71